createdAt,value
2018-02-23T00:00:43.379Z,84.06
2018-02-23T00:01:43.347Z,83.68
2018-02-23T00:02:43.323Z,83.87
2018-02-23T00:03:43.295Z,84.25
2018-02-23T00:04:43.247Z,83.97
2018-02-23T00:05:43.226Z,83.87
2018-02-23T00:06:43.190Z,83.87
2018-02-23T00:07:43.152Z,84.44
2018-02-23T00:08:43.131Z,83.97
2018-02-23T00:09:43.094Z,83.78
2018-02-23T00:10:43.076Z,84.25
2018-02-23T00:11:43.019Z,84.25
2018-02-23T00:12:43.004Z,84.34
2018-02-23T00:13:42.958Z,84.44
2018-02-23T00:14:42.940Z,84.63
2018-02-23T00:15:42.899Z,84.25
2018-02-23T00:16:42.866Z,84.06
2018-02-23T00:17:42.827Z,84.25
2018-02-23T00:18:42.810Z,84.16
2018-02-23T00:19:42.787Z,84.16
2018-02-23T00:20:42.736Z,84.06
2018-02-23T00:21:42.713Z,83.97
2018-02-23T00:22:42.667Z,84.25
2018-02-23T00:23:42.643Z,84.63
2018-02-23T00:24:42.597Z,84.25
2018-02-23T00:25:42.587Z,83.97
2018-02-23T00:26:42.545Z,83.87
2018-02-23T00:27:42.504Z,84.53
2018-02-23T00:28:42.478Z,83.49
2018-02-23T00:29:42.446Z,83.30
2018-02-23T00:30:42.440Z,83.02
2018-02-23T00:31:42.377Z,83.59
2018-02-23T00:32:42.332Z,83.68
2018-02-23T00:33:42.326Z,84.06
2018-02-23T00:34:42.284Z,83.68
2018-02-23T00:35:42.254Z,83.68
2018-02-23T00:36:42.221Z,83.49
2018-02-23T00:37:42.206Z,83.59
2018-02-23T00:38:42.188Z,83.40
2018-02-23T00:39:42.125Z,83.78
2018-02-23T00:40:42.110Z,84.25
2018-02-23T00:41:42.048Z,83.49
2018-02-23T00:42:42.022Z,83.59
2018-02-23T00:43:41.982Z,83.97
2018-02-23T00:44:41.967Z,83.59
2018-02-23T00:45:41.923Z,83.78
2018-02-23T00:46:41.919Z,82.97
2018-02-23T00:47:42.596Z,83.44
2018-02-23T00:48:41.829Z,83.25
2018-02-23T00:49:41.788Z,82.78
2018-02-23T00:50:41.759Z,82.68
2018-02-23T00:51:41.748Z,82.68
2018-02-23T00:52:41.708Z,82.68
2018-02-23T00:53:41.701Z,82.50
2018-02-23T00:54:41.636Z,82.31
2018-02-23T00:55:41.603Z,82.78
2018-02-23T00:56:41.564Z,82.78
2018-02-23T00:57:41.545Z,82.73
2018-02-23T00:58:41.505Z,83.11
2018-02-23T00:59:41.479Z,83.87
2018-02-23T01:00:41.439Z,83.97
2018-02-23T01:01:41.405Z,84.10
2018-02-23T01:02:41.373Z,83.82
2018-02-23T01:03:41.342Z,83.72
2018-02-23T01:04:41.313Z,83.59
2018-02-23T01:05:41.294Z,83.78
2018-02-23T01:06:41.240Z,84.25
2018-02-23T01:07:41.232Z,84.16
2018-02-23T01:08:41.179Z,84.06
2018-02-23T01:09:41.148Z,84.53
2018-02-23T01:10:41.120Z,85.10
2018-02-23T01:11:41.083Z,85.19
2018-02-23T01:12:41.054Z,85.57
2018-02-23T01:13:41.025Z,85.76
2018-02-23T01:14:41.003Z,86.23
2018-02-23T01:15:40.967Z,86.33
2018-02-23T01:16:40.933Z,86.14
2018-02-23T01:17:40.889Z,86.23
2018-02-23T01:18:40.878Z,86.52
2018-02-23T01:19:40.839Z,86.61
2018-02-23T01:20:40.804Z,87.08
2018-02-23T01:21:40.765Z,87.18
2018-02-23T01:22:40.749Z,86.99
2018-02-23T01:23:40.720Z,87.18
2018-02-23T01:24:40.663Z,87.27
2018-02-23T01:25:40.631Z,87.55
2018-02-23T01:26:40.604Z,88.03
2018-02-23T01:27:40.562Z,87.84
2018-02-23T01:28:40.552Z,88.03
2018-02-23T01:29:40.526Z,87.74
2018-02-23T01:30:40.496Z,87.27
2018-02-23T01:31:40.435Z,87.74
2018-02-23T01:32:40.424Z,87.93
2018-02-23T01:33:40.387Z,87.84
2018-02-23T01:34:40.349Z,87.84
2018-02-23T01:35:40.347Z,87.84
2018-02-23T01:36:40.278Z,88.22
2018-02-23T01:37:40.261Z,88.22
2018-02-23T01:38:40.212Z,88.12
2018-02-23T01:39:40.176Z,88.12
2018-02-23T01:40:40.166Z,87.84
2018-02-23T01:41:40.115Z,88.12
2018-02-23T01:42:40.091Z,88.12
2018-02-23T01:43:40.053Z,87.93
2018-02-23T01:44:40.006Z,88.12
2018-02-23T01:45:39.996Z,88.22
2018-02-23T01:46:39.949Z,88.41
2018-02-23T01:47:39.922Z,88.50
2018-02-23T01:48:39.917Z,88.50
2018-02-23T01:49:39.850Z,88.41
2018-02-23T01:50:39.822Z,88.50
2018-02-23T01:51:39.787Z,88.88
2018-02-23T01:52:39.778Z,88.31
2018-02-23T01:53:39.720Z,88.69
2018-02-23T01:54:39.721Z,88.50
2018-02-23T01:55:39.669Z,88.50
2018-02-23T01:56:39.623Z,88.69
2018-02-23T01:57:39.596Z,88.50
2018-02-23T01:58:39.561Z,88.41
2018-02-23T01:59:39.524Z,88.88
2018-02-23T02:00:39.517Z,89.17
2018-02-23T02:01:39.472Z,89.17
2018-02-23T02:02:39.443Z,89.54
2018-02-23T02:03:39.410Z,89.54
2018-02-23T02:04:39.391Z,89.54
2018-02-23T02:05:39.343Z,89.54
2018-02-23T02:06:39.311Z,89.73
2018-02-23T02:07:39.262Z,89.73
2018-02-23T02:08:39.237Z,90.01
2018-02-23T02:09:39.210Z,89.92
2018-02-23T02:10:39.183Z,89.54
2018-02-23T02:11:39.145Z,89.45
2018-02-23T02:12:39.092Z,89.45
2018-02-23T02:13:39.074Z,89.73
2018-02-23T02:14:39.026Z,89.64
2018-02-23T02:15:39.004Z,89.73
2018-02-23T02:16:38.984Z,89.73
2018-02-23T02:17:38.971Z,89.73
2018-02-23T02:18:38.913Z,89.73
2018-02-23T02:19:38.869Z,89.54
2018-02-23T02:20:38.838Z,89.73
2018-02-23T02:21:38.811Z,90.30
2018-02-23T02:22:38.781Z,89.73
2018-02-23T02:23:38.747Z,89.54
2018-02-23T02:24:38.715Z,89.64
2018-02-23T02:25:38.678Z,89.73
2018-02-23T02:26:38.659Z,89.36
2018-02-23T02:27:38.616Z,89.45
2018-02-23T02:28:38.576Z,90.11
2018-02-23T02:29:38.553Z,89.54
2018-02-23T02:30:38.525Z,89.92
2018-02-23T02:31:38.502Z,89.64
2018-02-23T02:32:38.452Z,89.73
2018-02-23T02:33:38.415Z,89.83
2018-02-23T02:34:38.398Z,90.01
2018-02-23T02:35:38.351Z,90.20
2018-02-23T02:36:38.315Z,89.83
2018-02-23T02:37:38.281Z,90.39
2018-02-23T02:38:38.270Z,90.30
2018-02-23T02:39:38.252Z,90.11
2018-02-23T02:40:38.201Z,90.20
2018-02-23T02:41:38.180Z,90.11
2018-02-23T02:42:38.125Z,90.39
2018-02-23T02:43:38.096Z,90.30
2018-02-23T02:44:38.070Z,90.11
2018-02-23T02:45:38.040Z,90.20
2018-02-23T02:46:37.996Z,90.49
2018-02-23T02:47:37.966Z,90.58
2018-02-23T02:48:37.938Z,90.49
2018-02-23T02:49:37.897Z,90.01
2018-02-23T02:50:37.869Z,90.86
2018-02-23T02:51:37.848Z,90.96
2018-02-23T02:52:37.813Z,90.68
2018-02-23T02:53:37.774Z,90.68
2018-02-23T02:54:37.747Z,91.05
2018-02-23T02:55:38.608Z,90.68
2018-02-23T02:56:37.672Z,90.86
2018-02-23T02:57:37.639Z,90.77
2018-02-23T02:58:37.608Z,90.77
2018-02-23T02:59:37.574Z,90.49
2018-02-23T03:00:37.544Z,90.68
2018-02-23T03:01:37.540Z,90.77
2018-02-23T03:02:37.473Z,90.86
2018-02-23T03:03:37.451Z,90.77
2018-02-23T03:04:37.416Z,90.49
2018-02-23T03:05:37.372Z,90.86
2018-02-23T03:06:37.342Z,91.05
2018-02-23T03:07:37.314Z,91.05
2018-02-23T03:08:37.283Z,91.15
2018-02-23T03:09:37.240Z,91.05
2018-02-23T03:10:37.221Z,91.34
2018-02-23T03:11:37.197Z,91.72
2018-02-23T03:12:37.159Z,91.62
2018-02-23T03:13:37.117Z,91.53
2018-02-23T03:14:37.095Z,91.53
2018-02-23T03:15:37.057Z,91.53
2018-02-23T03:16:37.041Z,91.34
2018-02-23T03:17:36.988Z,92.00
2018-02-23T03:18:36.952Z,91.81
2018-02-23T03:19:36.932Z,91.62
2018-02-23T03:20:36.887Z,91.81
2018-02-23T03:21:36.870Z,91.81
2018-02-23T03:22:36.841Z,92.00
2018-02-23T03:23:36.801Z,92.19
2018-02-23T03:24:36.759Z,91.91
2018-02-23T03:25:36.736Z,91.91
2018-02-23T03:26:36.688Z,92.47
2018-02-23T03:27:36.683Z,92.38
2018-02-23T03:28:36.638Z,92.29
2018-02-23T03:29:36.608Z,92.47
2018-02-23T03:30:36.572Z,92.19
2018-02-23T03:31:36.539Z,92.57
2018-02-23T03:32:36.514Z,92.66
2018-02-23T03:33:36.496Z,92.85
2018-02-23T03:34:36.444Z,92.85
2018-02-23T03:35:36.416Z,93.23
2018-02-23T03:36:36.365Z,92.66
2018-02-23T03:37:36.335Z,93.42
2018-02-23T03:38:36.299Z,93.13
2018-02-23T03:39:36.279Z,93.42
2018-02-23T03:40:36.268Z,92.85
2018-02-23T03:41:36.207Z,93.51
2018-02-23T03:42:36.171Z,93.66
2018-02-23T03:43:36.157Z,93.61
2018-02-23T03:44:36.139Z,93.37
2018-02-23T03:45:36.088Z,92.99
2018-02-23T03:46:36.056Z,93.09
2018-02-23T03:47:36.009Z,93.37
2018-02-23T03:48:35.992Z,93.28
2018-02-23T03:49:35.957Z,93.37
2018-02-23T03:50:35.906Z,93.47
2018-02-23T03:51:35.874Z,93.75
2018-02-23T03:52:35.864Z,93.47
2018-02-23T03:53:35.832Z,93.66
2018-02-23T03:54:35.770Z,94.13
2018-02-23T03:55:35.776Z,94.03
2018-02-23T03:56:35.709Z,94.13
2018-02-23T03:57:35.687Z,93.75
2018-02-23T03:58:35.643Z,94.03
2018-02-23T03:59:35.613Z,93.56
2018-02-23T04:00:35.580Z,94.13
2018-02-23T04:01:35.553Z,94.03
2018-02-23T04:02:35.524Z,94.13
2018-02-23T04:03:35.478Z,94.79
2018-02-23T04:04:35.468Z,94.60
2018-02-23T04:05:35.426Z,94.60
2018-02-23T04:06:35.384Z,94.79
2018-02-23T04:07:35.353Z,94.32
2018-02-23T04:08:35.334Z,94.51
2018-02-23T04:09:35.278Z,94.60
2018-02-23T04:10:35.250Z,94.79
2018-02-23T04:11:35.212Z,94.22
2018-02-23T04:12:35.200Z,93.94
2018-02-23T04:13:35.188Z,94.13
2018-02-23T04:14:35.115Z,93.84
2018-02-23T04:15:35.123Z,94.79
2018-02-23T04:16:35.064Z,94.51
2018-02-23T04:17:35.023Z,94.32
2018-02-23T04:18:34.987Z,94.98
2018-02-23T04:19:34.972Z,94.60
2018-02-23T04:20:34.933Z,94.60
2018-02-23T04:21:34.888Z,94.13
2018-02-23T04:22:34.851Z,94.89
2018-02-23T04:23:34.818Z,94.79
2018-02-23T04:24:34.797Z,94.32
2018-02-23T04:25:34.767Z,93.84
2018-02-23T04:26:34.729Z,94.13
2018-02-23T04:27:34.729Z,93.84
2018-02-23T04:28:34.718Z,94.41
2018-02-23T04:29:34.629Z,94.60
2018-02-23T04:30:34.627Z,94.51
2018-02-23T04:31:34.561Z,94.60
2018-02-23T04:32:34.529Z,94.98
2018-02-23T04:33:34.492Z,94.89
2018-02-23T04:34:34.457Z,94.98
2018-02-23T04:35:34.438Z,95.17
2018-02-23T04:36:34.393Z,94.51
2018-02-23T04:37:34.365Z,94.32
2018-02-23T04:38:34.336Z,95.26
2018-02-23T04:39:34.320Z,94.79
2018-02-23T04:40:34.267Z,94.13
2018-02-23T04:41:34.247Z,94.03
2018-02-23T04:42:34.207Z,94.32
2018-02-23T04:43:34.189Z,94.51
2018-02-23T04:44:34.134Z,94.98
2018-02-23T04:45:34.112Z,94.51
2018-02-23T04:46:34.066Z,94.98
2018-02-23T04:47:34.048Z,94.79
2018-02-23T04:48:33.993Z,94.89
2018-02-23T04:49:33.974Z,93.66
2018-02-23T04:50:33.950Z,93.18
2018-02-23T04:51:33.894Z,93.84
2018-02-23T04:52:33.877Z,94.32
2018-02-23T04:53:33.843Z,94.13
2018-02-23T04:54:33.799Z,94.51
2018-02-23T04:55:33.792Z,94.60
2018-02-23T04:56:33.754Z,94.51
2018-02-23T04:57:33.721Z,94.79
2018-02-23T04:58:33.692Z,94.60
2018-02-23T04:59:33.654Z,94.51
2018-02-23T05:00:33.609Z,94.60
2018-02-23T05:01:33.577Z,94.98
2018-02-23T05:02:33.556Z,94.51
2018-02-23T05:03:33.504Z,94.51
2018-02-23T05:04:33.492Z,94.51
2018-02-23T05:05:33.461Z,94.79
2018-02-23T05:06:33.417Z,94.22
2018-02-23T05:07:33.389Z,94.60
2018-02-23T05:08:33.347Z,94.60
2018-02-23T05:09:33.318Z,94.79
2018-02-23T05:10:33.281Z,94.79
2018-02-23T05:11:33.249Z,94.22
2018-02-23T05:12:33.203Z,94.22
2018-02-23T05:13:33.181Z,94.98
2018-02-23T05:14:33.175Z,94.79
2018-02-23T05:15:33.106Z,94.60
2018-02-23T05:16:33.090Z,94.51
2018-02-23T05:17:33.040Z,94.41
2018-02-23T05:18:33.029Z,94.32
2018-02-23T05:19:32.977Z,94.60
2018-02-23T05:20:32.956Z,94.79
2018-02-23T05:21:32.925Z,94.79
2018-02-23T05:22:32.870Z,94.41
2018-02-23T05:23:32.854Z,94.70
2018-02-23T05:24:32.827Z,94.79
2018-02-23T05:25:32.785Z,95.45
2018-02-23T05:26:32.741Z,95.45
2018-02-23T05:27:32.728Z,95.36
2018-02-23T05:28:32.696Z,95.73
2018-02-23T05:29:32.657Z,95.64
2018-02-23T05:30:32.622Z,95.45
2018-02-23T05:31:32.598Z,95.54
2018-02-23T05:32:32.559Z,95.83
2018-02-23T05:33:32.531Z,95.54
2018-02-23T05:34:32.492Z,95.17
2018-02-23T05:35:32.486Z,95.17
2018-02-23T05:36:32.422Z,94.79
2018-02-23T05:37:32.384Z,94.89
2018-02-23T05:38:32.365Z,94.79
2018-02-23T05:39:32.313Z,94.79
2018-02-23T05:40:32.296Z,94.32
2018-02-23T05:41:32.256Z,94.13
2018-02-23T05:42:32.213Z,94.03
2018-02-23T05:43:32.210Z,94.41
2018-02-23T05:44:32.235Z,93.84
2018-02-23T05:45:32.147Z,94.32
2018-02-23T05:46:32.103Z,94.32
2018-02-23T05:47:32.051Z,94.13
2018-02-23T05:48:32.021Z,93.84
2018-02-23T05:49:32.000Z,93.47
2018-02-23T05:50:31.964Z,93.47
2018-02-23T05:51:31.930Z,93.28
2018-02-23T05:52:31.882Z,93.37
2018-02-23T05:53:31.847Z,93.47
2018-02-23T05:54:31.824Z,93.47
2018-02-23T05:55:31.785Z,93.56
2018-02-23T05:56:31.754Z,94.13
2018-02-23T05:57:31.735Z,94.41
2018-02-23T05:58:31.710Z,93.37
2018-02-23T05:59:31.652Z,93.47
2018-02-23T06:00:31.630Z,93.37
2018-02-23T06:01:31.580Z,92.52
2018-02-23T06:02:31.568Z,92.14
2018-02-23T06:03:31.518Z,92.61
2018-02-23T06:04:31.489Z,92.24
2018-02-23T06:05:31.453Z,92.14
2018-02-23T06:06:31.422Z,91.86
2018-02-23T06:07:31.385Z,91.77
2018-02-23T06:08:31.375Z,91.77
2018-02-23T06:09:31.331Z,91.77
2018-02-23T06:10:31.304Z,91.86
2018-02-23T06:11:31.256Z,92.61
2018-02-23T06:12:33.010Z,92.05
2018-02-23T06:13:31.728Z,92.61
2018-02-23T06:14:32.921Z,92.99
2018-02-23T06:15:31.136Z,93.28
2018-02-23T06:16:31.088Z,92.80
2018-02-23T06:17:31.056Z,92.24
2018-02-23T06:18:31.036Z,92.05
2018-02-23T06:19:31.029Z,91.77
2018-02-23T06:20:30.973Z,91.39
2018-02-23T06:21:30.930Z,91.67
2018-02-23T06:22:30.893Z,91.67
2018-02-23T06:23:30.860Z,91.96
2018-02-23T06:24:30.843Z,91.96
2018-02-23T06:25:30.790Z,91.20
2018-02-23T06:26:30.771Z,91.01
2018-02-23T06:27:30.724Z,91.20
2018-02-23T06:28:30.700Z,90.82
2018-02-23T06:29:30.673Z,90.82
2018-02-23T06:30:30.629Z,89.87
2018-02-23T06:31:30.604Z,90.63
2018-02-23T06:32:30.561Z,90.16
2018-02-23T06:33:30.534Z,90.73
2018-02-23T06:34:30.529Z,90.54
2018-02-23T06:35:30.459Z,90.54
2018-02-23T06:36:30.455Z,91.01
2018-02-23T06:37:30.406Z,91.29
2018-02-23T06:38:30.364Z,91.39
2018-02-23T06:39:30.333Z,90.91
2018-02-23T06:40:30.370Z,91.20
2018-02-23T06:41:30.274Z,90.73
2018-02-23T06:42:30.229Z,90.91
2018-02-23T06:43:30.207Z,90.82
2018-02-23T06:44:30.162Z,90.91
2018-02-23T06:45:30.132Z,90.82
2018-02-23T06:46:30.129Z,90.73
2018-02-23T06:47:30.093Z,90.63
2018-02-23T06:48:30.028Z,90.77
2018-02-23T06:49:30.017Z,90.73
2018-02-23T06:50:29.963Z,90.68
2018-02-23T06:51:29.921Z,90.73
2018-02-23T06:52:29.905Z,90.82
2018-02-23T06:53:29.866Z,90.96
2018-02-23T06:54:29.841Z,90.77
2018-02-23T06:55:29.797Z,90.68
2018-02-23T06:56:29.788Z,90.77
2018-02-23T06:57:29.732Z,90.68
2018-02-23T06:58:29.734Z,90.96
2018-02-23T06:59:29.662Z,90.44
2018-02-23T07:00:29.636Z,90.73
2018-02-23T07:01:29.618Z,90.68
2018-02-23T07:02:29.588Z,90.11
2018-02-23T07:03:29.538Z,90.35
2018-02-23T07:04:29.518Z,90.40
2018-02-23T07:05:29.467Z,90.35
2018-02-23T07:06:29.428Z,90.44
2018-02-23T07:07:29.404Z,90.06
2018-02-23T07:08:29.377Z,90.06
2018-02-23T07:09:29.339Z,90.16
2018-02-23T07:10:29.299Z,89.69
2018-02-23T07:11:29.267Z,89.69
2018-02-23T07:12:29.235Z,89.69
2018-02-23T07:13:29.222Z,90.06
2018-02-23T07:14:29.176Z,89.69
2018-02-23T07:15:29.142Z,89.22
2018-02-23T07:16:29.136Z,89.22
2018-02-23T07:17:29.080Z,89.40
2018-02-23T07:18:29.088Z,89.50
2018-02-23T07:19:29.008Z,89.12
2018-02-23T07:20:28.963Z,88.65
2018-02-23T07:21:28.948Z,88.93
2018-02-23T07:22:28.902Z,88.84
2018-02-23T07:23:28.875Z,88.65
2018-02-23T07:24:28.838Z,88.74
2018-02-23T07:25:28.804Z,88.08
2018-02-23T07:26:28.789Z,87.51
2018-02-23T07:27:28.738Z,88.08
2018-02-23T07:28:28.720Z,87.89
2018-02-23T07:29:28.672Z,87.89
2018-02-23T07:30:28.637Z,87.70
2018-02-23T07:31:28.618Z,87.79
2018-02-23T07:32:28.569Z,87.79
2018-02-23T07:33:28.564Z,87.13
2018-02-23T07:34:28.499Z,86.85
2018-02-23T07:35:28.503Z,86.47
2018-02-23T07:36:28.441Z,86.66
2018-02-23T07:37:28.426Z,86.57
2018-02-23T07:38:28.381Z,85.81
2018-02-23T07:39:28.341Z,85.81
2018-02-23T07:40:28.312Z,85.53
2018-02-23T07:41:28.291Z,86.00
2018-02-23T07:42:28.237Z,85.43
2018-02-23T07:43:28.204Z,85.53
2018-02-23T07:44:28.174Z,85.34
2018-02-23T07:45:28.147Z,85.34
2018-02-23T07:46:28.104Z,85.24
2018-02-23T07:47:28.092Z,84.58
2018-02-23T07:48:28.037Z,84.68
2018-02-23T07:49:28.000Z,84.30
2018-02-23T07:50:27.981Z,84.49
2018-02-23T07:51:27.935Z,84.49
2018-02-23T07:52:27.906Z,83.83
2018-02-23T07:53:27.881Z,83.64
2018-02-23T07:54:27.840Z,83.17
2018-02-23T07:55:27.806Z,82.22
2018-02-23T07:56:27.778Z,81.74
2018-02-23T07:57:27.742Z,81.46
2018-02-23T07:58:27.730Z,81.46
2018-02-23T07:59:27.671Z,82.03
2018-02-23T08:00:27.661Z,81.37
2018-02-23T08:01:27.609Z,80.71
2018-02-23T08:02:27.568Z,80.33
2018-02-23T08:03:27.554Z,79.95
2018-02-23T08:04:27.504Z,79.57
2018-02-23T08:05:27.479Z,79.57
2018-02-23T08:06:27.443Z,78.91
2018-02-23T08:07:27.417Z,78.81
2018-02-23T08:08:27.369Z,78.53
2018-02-23T08:09:27.340Z,77.31
2018-02-23T08:10:27.301Z,77.50
2018-02-23T08:11:27.279Z,76.64
2018-02-23T08:12:27.247Z,76.17
2018-02-23T08:13:27.214Z,74.95
2018-02-23T08:14:27.186Z,74.47
2018-02-23T08:15:27.155Z,74.09
2018-02-23T08:16:27.103Z,73.81
2018-02-23T08:17:27.078Z,73.62
2018-02-23T08:18:27.055Z,72.86
2018-02-23T08:19:27.006Z,72.67
2018-02-23T08:20:26.999Z,72.58
2018-02-23T08:21:26.944Z,72.20
2018-02-23T08:22:26.919Z,71.54
2018-02-23T08:23:26.878Z,72.11
2018-02-23T08:24:26.845Z,71.92
2018-02-23T08:25:26.829Z,72.02
2018-02-23T08:26:26.795Z,71.86
2018-02-23T08:27:26.752Z,71.67
2018-02-23T08:28:26.709Z,71.01
2018-02-23T08:29:26.689Z,70.73
2018-02-23T08:30:26.640Z,70.06
2018-02-23T08:31:26.625Z,70.25
2018-02-23T08:32:26.582Z,70.25
2018-02-23T08:33:26.554Z,69.87
2018-02-23T08:34:26.521Z,69.97
2018-02-23T08:35:26.479Z,69.97
2018-02-23T08:36:26.454Z,69.49
2018-02-23T08:37:26.419Z,69.12
2018-02-23T08:38:26.375Z,69.40
2018-02-23T08:39:26.377Z,69.31
2018-02-23T08:40:26.322Z,69.68
2018-02-23T08:41:26.282Z,69.12
2018-02-23T08:42:26.285Z,69.49
2018-02-23T08:43:26.238Z,69.40
2018-02-23T08:44:26.178Z,69.59
2018-02-23T08:45:26.153Z,69.31
2018-02-23T08:46:26.121Z,69.21
2018-02-23T08:47:26.084Z,69.31
2018-02-23T08:48:26.043Z,68.93
2018-02-23T08:49:26.039Z,69.21
2018-02-23T08:50:25.984Z,68.93
2018-02-23T08:51:25.990Z,68.65
2018-02-23T08:52:25.929Z,68.55
2018-02-23T08:53:25.891Z,69.21
2018-02-23T08:54:25.870Z,69.02
2018-02-23T08:55:25.850Z,68.93
2018-02-23T08:56:25.802Z,69.12
2018-02-23T08:57:25.767Z,68.74
2018-02-23T08:58:25.732Z,68.65
2018-02-23T08:59:25.702Z,69.59
2018-02-23T09:00:25.668Z,69.02
2018-02-23T09:01:25.656Z,69.31
2018-02-23T09:02:25.617Z,68.93
2018-02-23T09:03:25.561Z,69.02
2018-02-23T09:04:25.533Z,69.02
2018-02-23T09:05:25.492Z,68.65
2018-02-23T09:06:25.464Z,69.02
2018-02-23T09:07:25.433Z,68.65
2018-02-23T09:08:25.406Z,68.17
2018-02-23T09:09:25.366Z,68.46
2018-02-23T09:10:25.338Z,68.17
2018-02-23T09:11:25.304Z,68.27
2018-02-23T09:12:25.295Z,67.74
2018-02-23T09:13:25.233Z,68.12
2018-02-23T09:14:25.220Z,68.40
2018-02-23T09:15:25.181Z,68.30
2018-02-23T09:16:25.134Z,68.59
2018-02-23T09:17:25.130Z,68.02
2018-02-23T09:18:25.075Z,67.55
2018-02-23T09:19:25.043Z,67.98
2018-02-23T09:20:25.013Z,68.36
2018-02-23T09:21:24.998Z,69.12
2018-02-23T09:22:24.950Z,68.59
2018-02-23T09:23:24.919Z,68.27
2018-02-23T09:24:24.883Z,68.17
2018-02-23T09:25:24.842Z,68.36
2018-02-23T09:26:24.815Z,68.65
2018-02-23T09:27:24.790Z,68.74
2018-02-23T09:28:24.757Z,69.12
2018-02-23T09:29:24.729Z,68.55
2018-02-23T09:30:24.707Z,68.08
2018-02-23T09:31:24.677Z,68.55
2018-02-23T09:32:24.628Z,68.93
2018-02-23T09:33:24.597Z,69.21
2018-02-23T09:34:24.556Z,69.49
2018-02-23T09:35:24.534Z,69.40
2018-02-23T09:36:24.496Z,68.93
2018-02-23T09:37:24.469Z,68.55
2018-02-23T09:38:24.428Z,68.17
2018-02-23T09:39:24.388Z,68.74
2018-02-23T09:40:24.370Z,69.21
2018-02-23T09:41:24.331Z,68.36
2018-02-23T09:42:24.301Z,68.08
2018-02-23T09:43:24.263Z,67.22
2018-02-23T09:44:24.240Z,67.13
2018-02-23T09:45:24.207Z,67.70
2018-02-23T09:46:24.180Z,67.70
2018-02-23T09:47:24.136Z,67.89
2018-02-23T09:48:24.122Z,67.70
2018-02-23T09:49:24.078Z,67.41
2018-02-23T09:50:24.047Z,67.41
2018-02-23T09:51:24.003Z,67.32
2018-02-23T09:52:23.973Z,67.45
2018-02-23T09:53:23.967Z,67.07
2018-02-23T09:54:23.911Z,67.93
2018-02-23T09:55:23.864Z,67.36
2018-02-23T09:56:23.845Z,66.69
2018-02-23T09:57:23.810Z,65.56
2018-02-23T09:58:23.782Z,65.56
2018-02-23T09:59:23.769Z,65.47
2018-02-23T10:00:23.712Z,65.28
2018-02-23T10:01:23.683Z,64.90
2018-02-23T10:02:23.656Z,64.42
2018-02-23T10:03:23.637Z,63.85
2018-02-23T10:04:23.580Z,63.95
2018-02-23T10:05:23.557Z,63.67
2018-02-23T10:06:23.511Z,63.76
2018-02-23T10:07:23.496Z,63.67
2018-02-23T10:08:23.459Z,63.76
2018-02-23T10:09:23.424Z,63.95
2018-02-23T10:10:23.397Z,63.48
2018-02-23T10:11:23.353Z,62.91
2018-02-23T10:12:23.327Z,63.48
2018-02-23T10:13:23.292Z,63.01
2018-02-23T10:14:23.257Z,63.57
2018-02-23T10:15:23.237Z,63.57
2018-02-23T10:16:23.218Z,63.20
2018-02-23T10:17:23.156Z,62.72
2018-02-23T10:18:23.147Z,62.53
2018-02-23T10:19:23.141Z,62.34
2018-02-23T10:20:23.063Z,63.10
2018-02-23T10:21:23.042Z,62.91
2018-02-23T10:22:23.005Z,63.01
2018-02-23T10:23:22.973Z,63.01
2018-02-23T10:24:22.940Z,62.72
2018-02-23T10:25:22.908Z,63.20
2018-02-23T10:26:22.890Z,62.53
2018-02-23T10:27:22.843Z,62.25
2018-02-23T10:28:22.828Z,61.77
2018-02-23T10:29:22.777Z,61.58
2018-02-23T10:30:22.756Z,61.49
2018-02-23T10:31:22.736Z,61.02
2018-02-23T10:32:22.686Z,61.11
2018-02-23T10:33:22.657Z,61.49
2018-02-23T10:34:22.635Z,61.49
2018-02-23T10:35:22.574Z,61.30
2018-02-23T10:36:22.554Z,61.30
2018-02-23T10:37:22.528Z,61.21
2018-02-23T10:38:22.495Z,61.11
2018-02-23T10:39:22.484Z,61.49
2018-02-23T10:40:22.431Z,61.49
2018-02-23T10:41:22.408Z,60.55
2018-02-23T10:42:22.354Z,60.26
2018-02-23T10:43:22.341Z,60.36
2018-02-23T10:44:22.316Z,60.26
2018-02-23T10:45:22.263Z,60.10
2018-02-23T10:46:22.238Z,60.00
2018-02-23T10:47:22.199Z,60.19
2018-02-23T10:48:22.175Z,60.19
2018-02-23T10:49:22.176Z,59.63
2018-02-23T10:50:22.099Z,59.16
2018-02-23T10:51:22.072Z,58.49
2018-02-23T10:52:22.035Z,58.40
2018-02-23T10:53:21.998Z,58.68
2018-02-23T10:54:21.974Z,58.59
2018-02-23T10:55:21.942Z,58.40
2018-02-23T10:56:21.909Z,58.11
2018-02-23T10:57:21.886Z,58.02
2018-02-23T10:58:21.847Z,58.30
2018-02-23T10:59:21.822Z,58.11
2018-02-23T11:00:21.799Z,58.21
2018-02-23T11:01:21.748Z,57.83
2018-02-23T11:02:21.721Z,58.02
2018-02-23T11:03:21.686Z,58.21
2018-02-23T11:04:21.651Z,58.11
2018-02-23T11:05:21.618Z,58.21
2018-02-23T11:06:21.595Z,58.21
2018-02-23T11:07:21.605Z,57.73
2018-02-23T11:08:21.542Z,58.02
2018-02-23T11:09:21.486Z,57.73
2018-02-23T11:10:21.465Z,58.21
2018-02-23T11:11:21.424Z,58.68
2018-02-23T11:12:21.419Z,58.68
2018-02-23T11:13:21.364Z,58.40
2018-02-23T11:14:21.329Z,57.92
2018-02-23T11:15:21.322Z,58.02
2018-02-23T11:16:21.271Z,57.07
2018-02-23T11:17:21.237Z,56.72
2018-02-23T11:18:21.209Z,56.70
2018-02-23T11:19:21.182Z,56.34
2018-02-23T11:20:21.137Z,56.70
2018-02-23T11:21:21.112Z,56.70
2018-02-23T11:22:21.083Z,56.88
2018-02-23T11:23:21.073Z,56.79
2018-02-23T11:24:21.012Z,57.26
2018-02-23T11:25:20.984Z,57.35
2018-02-23T11:26:20.959Z,57.73
2018-02-23T11:27:20.927Z,58.02
2018-02-23T11:28:20.900Z,56.70
2018-02-23T11:29:20.872Z,56.88
2018-02-23T11:30:20.829Z,56.79
2018-02-23T11:31:20.807Z,57.07
2018-02-23T11:32:20.770Z,56.88
2018-02-23T11:33:20.754Z,57.07
2018-02-23T11:34:20.735Z,57.35
2018-02-23T11:35:20.665Z,57.26
2018-02-23T11:36:20.644Z,57.73
2018-02-23T11:37:20.604Z,57.35
2018-02-23T11:38:20.571Z,57.39
2018-02-23T11:39:20.541Z,56.72
2018-02-23T11:40:20.506Z,56.72
2018-02-23T11:41:20.496Z,56.82
2018-02-23T11:42:20.446Z,56.25
2018-02-23T11:43:20.424Z,56.34
2018-02-23T11:44:20.384Z,55.96
2018-02-23T11:45:20.356Z,56.15
2018-02-23T11:46:20.323Z,56.15
2018-02-23T11:47:20.290Z,56.25
2018-02-23T11:48:20.268Z,55.68
2018-02-23T11:49:20.233Z,55.77
2018-02-23T11:50:20.257Z,55.77
2018-02-23T11:51:20.160Z,55.77
2018-02-23T11:52:20.136Z,55.65
2018-02-23T11:53:20.107Z,56.53
2018-02-23T11:54:20.067Z,56.32
2018-02-23T11:55:20.029Z,56.32
2018-02-23T11:56:20.019Z,56.32
2018-02-23T11:57:19.980Z,56.41
2018-02-23T11:58:19.951Z,56.34
2018-02-23T11:59:19.921Z,56.44
2018-02-23T12:00:19.879Z,56.82
2018-02-23T12:01:19.845Z,56.22
2018-02-23T12:02:19.824Z,56.41
2018-02-23T12:03:19.784Z,56.70
2018-02-23T12:04:19.758Z,56.25
2018-02-23T12:05:19.718Z,56.51
2018-02-23T12:06:19.704Z,56.51
2018-02-23T12:07:19.666Z,56.70
2018-02-23T12:08:19.630Z,56.91
2018-02-23T12:09:19.610Z,56.70
2018-02-23T12:10:19.569Z,56.88
2018-02-23T12:11:19.527Z,57.29
2018-02-23T12:12:19.501Z,57.20
2018-02-23T12:13:19.464Z,56.82
2018-02-23T12:14:19.442Z,56.34
2018-02-23T12:15:19.402Z,56.82
2018-02-23T12:16:19.388Z,56.53
2018-02-23T12:17:19.353Z,56.82
2018-02-23T12:18:19.307Z,56.79
2018-02-23T12:19:19.280Z,56.82
2018-02-23T12:20:19.243Z,56.91
2018-02-23T12:21:19.238Z,57.57
2018-02-23T12:22:19.186Z,57.29
2018-02-23T12:23:19.146Z,56.72
2018-02-23T12:24:19.117Z,56.34
2018-02-23T12:25:19.088Z,56.44
2018-02-23T12:26:19.055Z,56.44
2018-02-23T12:27:19.035Z,56.34
2018-02-23T12:28:19.005Z,56.72
2018-02-23T12:29:18.959Z,57.20
2018-02-23T12:30:18.934Z,56.91
2018-02-23T12:31:18.897Z,56.44
2018-02-23T12:32:18.868Z,56.25
2018-02-23T12:33:18.846Z,56.34
2018-02-23T12:34:18.805Z,56.15
2018-02-23T12:35:18.787Z,56.53
2018-02-23T12:36:18.746Z,55.49
2018-02-23T12:37:18.708Z,56.15
2018-02-23T12:38:18.708Z,56.25
2018-02-23T12:39:18.654Z,56.25
2018-02-23T12:40:18.609Z,56.53
2018-02-23T12:41:18.595Z,56.25
2018-02-23T12:42:18.552Z,55.96
2018-02-23T12:43:18.526Z,56.15
2018-02-23T12:44:18.537Z,56.44
2018-02-23T12:45:18.468Z,56.72
2018-02-23T12:46:18.443Z,56.34
2018-02-23T12:47:18.389Z,56.72
2018-02-23T12:48:18.369Z,56.44
2018-02-23T12:49:18.340Z,56.15
2018-02-23T12:50:18.300Z,56.06
2018-02-23T12:51:18.275Z,56.15
2018-02-23T12:52:18.252Z,56.06